createdAt,value
2018-06-14T00:00:47.218Z,80.04
2018-06-14T00:03:16.115Z,79.03
2018-06-14T00:05:45.092Z,79.89
2018-06-14T00:08:13.990Z,79.63
2018-06-14T00:10:42.917Z,79.92
2018-06-14T00:13:11.829Z,79.20
2018-06-14T00:15:40.757Z,79.19
2018-06-14T00:18:09.639Z,79.73
2018-06-14T00:20:38.531Z,80.33
2018-06-14T00:23:07.469Z,80.25
2018-06-14T00:25:36.393Z,80.00
2018-06-14T00:28:05.326Z,79.44
2018-06-14T00:30:34.230Z,79.88
2018-06-14T00:33:03.213Z,79.85
2018-06-14T00:35:32.165Z,80.06
2018-06-14T00:38:01.130Z,79.63
2018-06-14T00:40:30.134Z,80.53
2018-06-14T00:42:59.048Z,79.48
2018-06-14T00:45:27.954Z,80.18
2018-06-14T00:47:56.945Z,79.98
2018-06-14T00:50:25.848Z,80.39
2018-06-14T00:52:54.777Z,79.94
2018-06-14T00:55:23.696Z,80.14
2018-06-14T00:57:52.587Z,80.43
2018-06-14T01:00:21.516Z,80.21
2018-06-14T01:02:50.418Z,80.02
2018-06-14T01:05:19.329Z,80.03
2018-06-14T01:07:48.234Z,79.98
2018-06-14T01:10:17.164Z,80.50
2018-06-14T01:12:46.093Z,79.84
2018-06-14T01:15:14.989Z,80.00
2018-06-14T01:17:44.222Z,81.02
2018-06-14T01:20:13.129Z,81.47
2018-06-14T01:22:42.023Z,80.42
2018-06-14T01:25:10.956Z,80.06
2018-06-14T01:27:39.917Z,79.98
2018-06-14T01:30:08.842Z,79.97
2018-06-14T01:32:37.758Z,80.33
2018-06-14T01:35:06.661Z,80.36
2018-06-14T01:37:47.018Z,80.34
2018-06-14T01:40:15.956Z,79.69
2018-06-14T01:42:44.885Z,79.75
2018-06-14T01:45:13.784Z,79.45
2018-06-14T01:47:42.704Z,79.62
2018-06-14T01:50:11.606Z,79.15
2018-06-14T01:52:40.529Z,79.02
2018-06-14T01:55:09.442Z,78.91
2018-06-14T01:57:38.374Z,79.07
2018-06-14T02:00:07.285Z,79.07
2018-06-14T02:02:36.583Z,78.60
2018-06-14T02:05:05.646Z,79.23
2018-06-14T02:07:34.553Z,79.31
2018-06-14T02:10:03.496Z,78.98
2018-06-14T02:12:32.430Z,78.36
2018-06-14T02:15:01.854Z,78.93
2018-06-14T02:17:30.826Z,79.77
2018-06-14T02:19:59.754Z,79.60
2018-06-14T02:22:28.643Z,79.16
2018-06-14T02:24:57.576Z,78.80
2018-06-14T02:27:26.482Z,78.76
2018-06-14T02:29:55.390Z,79.53
2018-06-14T02:32:24.323Z,80.42
2018-06-14T02:34:53.254Z,79.75
2018-06-14T02:37:22.558Z,79.75
2018-06-14T02:39:51.478Z,79.43
2018-06-14T02:42:20.378Z,79.73
2018-06-14T02:44:49.312Z,79.04
2018-06-14T02:47:18.230Z,79.17
2018-06-14T02:49:47.144Z,79.30
2018-06-14T02:52:16.035Z,78.99
2018-06-14T02:54:44.987Z,80.02
2018-06-14T02:57:13.911Z,80.37
2018-06-14T02:59:42.856Z,78.90
2018-06-14T03:02:11.770Z,79.60
2018-06-14T03:04:40.751Z,79.07
2018-06-14T03:07:09.750Z,80.67
2018-06-14T03:09:38.954Z,80.39
2018-06-14T03:12:07.961Z,79.61
2018-06-14T03:14:36.858Z,80.66
2018-06-14T03:17:05.778Z,80.89
2018-06-14T03:19:34.696Z,79.85
2018-06-14T03:22:03.610Z,80.26
2018-06-14T03:24:32.537Z,79.94
2018-06-14T03:27:01.474Z,80.10
2018-06-14T03:29:30.400Z,80.08
2018-06-14T03:31:59.299Z,80.58
2018-06-14T03:34:28.226Z,80.28
2018-06-14T03:36:57.145Z,81.18
2018-06-14T03:39:26.056Z,80.27
2018-06-14T03:41:55.081Z,79.86
2018-06-14T03:44:24.177Z,80.22
2018-06-14T03:46:53.091Z,81.04
2018-06-14T03:49:22.151Z,80.19
2018-06-14T03:51:51.062Z,79.74
2018-06-14T03:54:19.997Z,79.95
2018-06-14T03:56:48.909Z,79.88
2018-06-14T03:59:17.880Z,80.29
2018-06-14T04:01:50.618Z,80.12
2018-06-14T04:04:19.676Z,79.98
2018-06-14T04:06:48.637Z,80.66
2018-06-14T04:09:17.519Z,80.75
2018-06-14T04:11:46.463Z,81.00
2018-06-14T04:14:15.365Z,80.79
2018-06-14T04:16:44.297Z,80.26
2018-06-14T04:19:13.213Z,80.53
2018-06-14T04:21:43.097Z,80.59
2018-06-14T04:24:12.026Z,80.63
2018-06-14T04:26:40.930Z,81.05
2018-06-14T04:29:09.862Z,80.91
2018-06-14T04:31:38.814Z,80.92
2018-06-14T04:34:08.641Z,81.70
2018-06-14T04:36:37.545Z,81.23
2018-06-14T04:39:08.726Z,81.58
2018-06-14T04:41:37.640Z,82.66
2018-06-14T04:44:06.754Z,81.17
2018-06-14T04:46:35.685Z,81.38
2018-06-14T04:49:04.588Z,81.69
2018-06-14T04:51:37.673Z,81.52
2018-06-14T04:54:06.615Z,81.37
2018-06-14T04:56:35.564Z,81.78
2018-06-14T04:59:04.926Z,81.69
2018-06-14T05:01:34.162Z,81.74
2018-06-14T05:04:03.065Z,81.31
2018-06-14T05:06:32.450Z,80.75
2018-06-14T05:09:01.371Z,80.67
2018-06-14T05:11:30.320Z,80.69
2018-06-14T05:13:59.303Z,80.81
2018-06-14T05:16:28.212Z,80.77
2018-06-14T05:18:57.141Z,80.66
2018-06-14T05:21:26.241Z,81.22
2018-06-14T05:23:55.196Z,81.51
2018-06-14T05:26:24.104Z,80.33
2018-06-14T05:28:53.019Z,80.05
2018-06-14T05:31:21.940Z,80.26
2018-06-14T05:33:50.859Z,79.40
2018-06-14T05:36:19.788Z,79.48
2018-06-14T05:38:48.698Z,78.96
2018-06-14T05:41:17.618Z,79.78
2018-06-14T05:43:46.576Z,78.80
2018-06-14T05:46:15.662Z,78.70
2018-06-14T05:48:44.574Z,78.27
2018-06-14T05:51:13.468Z,77.75
2018-06-14T05:53:42.378Z,78.54
2018-06-14T05:56:11.401Z,78.13
2018-06-14T05:58:40.288Z,77.24
2018-06-14T06:01:09.204Z,77.61
2018-06-14T06:03:38.096Z,77.02
2018-06-14T06:06:07.027Z,77.55
2018-06-14T06:08:35.982Z,77.49
2018-06-14T06:11:04.916Z,76.85
2018-06-14T06:13:33.836Z,77.10
2018-06-14T06:16:02.759Z,76.92
2018-06-14T06:18:31.693Z,77.22
2018-06-14T06:21:00.609Z,76.50
2018-06-14T06:23:29.828Z,77.19
2018-06-14T06:25:59.060Z,76.60
2018-06-14T06:28:27.980Z,76.10
2018-06-14T06:30:56.916Z,75.77
2018-06-14T06:33:25.932Z,75.77
2018-06-14T06:35:54.805Z,74.92
2018-06-14T06:38:23.732Z,75.13
2018-06-14T06:40:52.636Z,75.24
2018-06-14T06:43:21.721Z,74.70
2018-06-14T06:45:50.644Z,74.30
2018-06-14T06:48:19.569Z,73.97
2018-06-14T06:50:48.474Z,73.59
2018-06-14T06:53:17.731Z,73.56
2018-06-14T06:55:47.001Z,73.79
2018-06-14T06:58:16.246Z,72.50
2018-06-14T07:00:45.524Z,72.51
2018-06-14T07:03:14.419Z,72.76
2018-06-14T07:05:43.329Z,72.56
2018-06-14T07:08:12.270Z,72.77
2018-06-14T07:10:41.148Z,71.32
2018-06-14T07:13:10.066Z,70.96
2018-06-14T07:15:42.289Z,70.72
2018-06-14T07:18:11.418Z,71.05
2018-06-14T07:20:40.338Z,70.65
2018-06-14T07:23:09.253Z,69.38
2018-06-14T07:25:38.181Z,68.89
2018-06-14T07:28:07.205Z,68.82
2018-06-14T07:30:36.133Z,69.35
2018-06-14T07:33:05.126Z,69.27
2018-06-14T07:35:34.035Z,69.30
2018-06-14T07:38:02.950Z,69.48
2018-06-14T07:40:31.860Z,69.11
2018-06-14T07:43:00.857Z,68.91
2018-06-14T07:45:29.702Z,69.07
2018-06-14T07:47:58.747Z,69.33
2018-06-14T07:50:27.673Z,68.69
2018-06-14T07:52:57.246Z,69.19
2018-06-14T07:55:26.187Z,68.87
2018-06-14T07:57:55.086Z,69.07
2018-06-14T08:00:24.000Z,68.24
2018-06-14T08:02:52.919Z,68.20
2018-06-14T08:05:21.844Z,68.36
2018-06-14T08:07:50.776Z,68.60
2018-06-14T08:10:19.696Z,67.74
2018-06-14T08:12:48.586Z,67.29
2018-06-14T08:15:17.497Z,67.69
2018-06-14T08:17:46.402Z,67.87
2018-06-14T08:20:15.310Z,66.71
2018-06-14T08:22:44.265Z,67.01
2018-06-14T08:25:13.165Z,66.58
2018-06-14T08:27:42.068Z,65.59
2018-06-14T08:30:10.997Z,64.00
2018-06-14T08:32:39.923Z,64.16
2018-06-14T08:35:09.153Z,63.69
2018-06-14T08:37:38.058Z,64.70
2018-06-14T08:40:07.088Z,66.32
2018-06-14T08:42:36.012Z,66.08
2018-06-14T08:45:04.952Z,65.46
2018-06-14T08:47:33.853Z,66.22
2018-06-14T08:50:02.767Z,65.58
2018-06-14T08:52:31.711Z,64.77
2018-06-14T08:55:00.841Z,64.93
2018-06-14T08:57:29.766Z,64.25
2018-06-14T08:59:58.904Z,62.87
2018-06-14T09:02:27.821Z,64.10
2018-06-14T09:04:56.731Z,64.41
2018-06-14T09:07:25.631Z,62.73
2018-06-14T09:09:54.559Z,62.98
2018-06-14T09:12:23.500Z,62.74
2018-06-14T09:14:52.398Z,62.64
2018-06-14T09:17:21.311Z,62.19
2018-06-14T09:19:50.262Z,63.06
2018-06-14T09:22:19.180Z,62.78
2018-06-14T09:24:48.521Z,60.44
2018-06-14T09:27:17.432Z,59.12
2018-06-14T09:29:46.403Z,57.81
2018-06-14T09:32:15.313Z,58.57
2018-06-14T09:34:44.247Z,58.79
2018-06-14T09:37:13.165Z,58.70
2018-06-14T09:39:42.074Z,58.53
2018-06-14T09:42:11.021Z,57.00
2018-06-14T09:44:39.919Z,57.35
2018-06-14T09:47:08.865Z,57.48
2018-06-14T09:49:37.794Z,55.74
2018-06-14T09:52:07.232Z,56.87
2018-06-14T09:54:36.170Z,57.53
2018-06-14T09:57:05.081Z,56.91
2018-06-14T09:59:34.180Z,57.40
2018-06-14T10:02:03.082Z,56.22
2018-06-14T10:04:32.024Z,55.63
2018-06-14T10:07:00.990Z,55.05
2018-06-14T10:09:29.928Z,56.34
2018-06-14T10:11:58.852Z,55.38
2018-06-14T10:14:27.774Z,55.26
2018-06-14T10:16:56.675Z,55.06
2018-06-14T10:19:25.644Z,55.19
2018-06-14T10:21:54.566Z,54.54
2018-06-14T10:24:23.472Z,52.86
2018-06-14T10:26:52.403Z,53.99
2018-06-14T10:29:21.483Z,54.48
2018-06-14T10:31:50.845Z,54.16
2018-06-14T10:34:19.753Z,54.93
2018-06-14T10:36:48.652Z,54.44
2018-06-14T10:39:17.714Z,54.26
2018-06-14T10:41:46.668Z,54.80
2018-06-14T10:44:15.586Z,56.06
2018-06-14T10:46:44.500Z,55.07
2018-06-14T10:49:13.685Z,53.99
2018-06-14T10:51:42.606Z,53.52
2018-06-14T10:54:11.658Z,54.25
2018-06-14T10:56:40.593Z,53.96
2018-06-14T10:59:09.814Z,54.40
2018-06-14T11:01:38.741Z,53.70
2018-06-14T11:04:07.721Z,54.41
2018-06-14T11:06:36.624Z,54.23
2018-06-14T11:09:08.501Z,53.84
2018-06-14T11:11:37.424Z,53.14
2018-06-14T11:14:06.438Z,52.98
2018-06-14T11:16:35.514Z,52.75
2018-06-14T11:19:04.590Z,53.80
2018-06-14T11:21:33.733Z,53.37
2018-06-14T11:24:03.049Z,52.96
2018-06-14T11:26:31.996Z,53.38
2018-06-14T11:29:00.952Z,53.11
2018-06-14T11:31:29.868Z,53.63
2018-06-14T11:33:58.782Z,54.54
2018-06-14T11:36:27.690Z,53.27
2018-06-14T11:38:56.648Z,52.98
2018-06-14T11:41:25.576Z,52.70
2018-06-14T11:43:54.461Z,52.39
2018-06-14T11:46:23.371Z,51.66
2018-06-14T11:48:52.271Z,52.46
2018-06-14T11:51:21.179Z,52.56
2018-06-14T11:53:50.108Z,53.37
2018-06-14T11:56:19.033Z,51.34
2018-06-14T11:58:47.966Z,52.42
2018-06-14T12:01:16.855Z,51.58
2018-06-14T12:03:45.768Z,51.00
2018-06-14T12:06:14.679Z,50.58
2018-06-14T12:08:43.600Z,50.57
2018-06-14T12:11:12.494Z,49.98
2018-06-14T12:13:41.387Z,49.48
2018-06-14T12:16:10.272Z,50.25
2018-06-14T12:18:39.182Z,50.26
2018-06-14T12:21:08.339Z,50.21
2018-06-14T12:23:37.238Z,49.67
2018-06-14T12:26:06.250Z,50.37
2018-06-14T12:28:35.189Z,50.26
2018-06-14T12:31:04.132Z,51.05
2018-06-14T12:33:33.049Z,50.33
2018-06-14T12:36:01.965Z,51.17
2018-06-14T12:38:30.903Z,51.20
2018-06-14T12:40:59.845Z,51.71
2018-06-14T12:43:28.758Z,51.06
2018-06-14T12:45:57.698Z,51.09
2018-06-14T12:48:26.576Z,51.39
2018-06-14T12:50:59.144Z,50.88
2018-06-14T12:53:28.134Z,51.81
2018-06-14T12:55:57.067Z,50.46
2018-06-14T12:58:26.012Z,49.99
2018-06-14T13:00:54.855Z,51.11
2018-06-14T13:03:23.791Z,52.74
2018-06-14T13:05:52.714Z,52.02
2018-06-14T13:08:21.635Z,51.80
2018-06-14T13:10:50.549Z,51.30
2018-06-14T13:13:19.578Z,52.51
2018-06-14T13:15:48.495Z,52.89
2018-06-14T13:18:17.866Z,52.93
2018-06-14T13:20:46.812Z,53.05
2018-06-14T13:23:16.051Z,53.34
2018-06-14T13:25:45.158Z,53.42
2018-06-14T13:28:17.508Z,53.70
2018-06-14T13:30:46.517Z,53.54
2018-06-14T13:33:15.418Z,54.28
2018-06-14T13:35:44.386Z,54.16
2018-06-14T13:38:13.313Z,54.30
2018-06-14T13:40:42.243Z,55.05
2018-06-14T13:43:11.284Z,55.21
2018-06-14T13:45:40.386Z,54.94
2018-06-14T13:48:09.302Z,54.91
2018-06-14T13:50:38.218Z,55.83
2018-06-14T13:53:07.112Z,56.59
2018-06-14T13:55:36.112Z,56.22
2018-06-14T13:58:04.961Z,56.91
2018-06-14T14:00:33.888Z,57.52
2018-06-14T14:03:02.792Z,55.84
2018-06-14T14:05:31.723Z,56.68
2018-06-14T14:08:00.640Z,57.48
2018-06-14T14:10:29.548Z,58.17
2018-06-14T14:12:58.460Z,58.65
2018-06-14T14:15:27.387Z,59.68
2018-06-14T14:17:58.295Z,60.38
2018-06-14T14:20:27.188Z,62.83
2018-06-14T14:22:56.425Z,62.15
2018-06-14T14:25:25.819Z,62.88
2018-06-14T14:27:55.010Z,63.40
2018-06-14T14:30:23.950Z,63.91
2018-06-14T14:32:52.856Z,63.93
2018-06-14T14:35:21.777Z,65.60
2018-06-14T14:37:50.706Z,65.84
2018-06-14T14:40:19.687Z,69.07
2018-06-14T14:42:48.619Z,68.89
2018-06-14T14:45:17.519Z,69.19
2018-06-14T14:47:46.463Z,69.23
2018-06-14T14:50:15.377Z,70.03
2018-06-14T14:52:44.306Z,72.42
2018-06-14T14:55:13.195Z,72.61
2018-06-14T14:57:42.174Z,74.12
2018-06-14T15:00:11.090Z,77.35
2018-06-14T15:02:39.989Z,76.18
2018-06-14T15:05:08.915Z,75.96
2018-06-14T15:07:37.833Z,78.16
2018-06-14T15:10:06.757Z,78.65
2018-06-14T15:12:35.681Z,81.54
2018-06-14T15:15:04.592Z,81.37
2018-06-14T15:17:33.555Z,81.82
2018-06-14T15:20:02.445Z,82.38
2018-06-14T15:22:31.374Z,82.35
2018-06-14T15:25:00.286Z,82.85
2018-06-14T15:27:29.211Z,85.90
2018-06-14T15:29:58.136Z,86.02
2018-06-14T15:32:27.050Z,86.43
2018-06-14T15:34:56.032Z,85.49
2018-06-14T15:37:28.058Z,87.42
2018-06-14T15:39:56.987Z,87.01
2018-06-14T15:42:26.241Z,85.73
2018-06-14T15:44:55.149Z,85.11
2018-06-14T15:47:24.095Z,86.72
2018-06-14T15:49:53.007Z,85.95
2018-06-14T15:52:21.947Z,86.83
2018-06-14T15:56:05.692Z,88.11
2018-06-14T15:58:34.641Z,88.68
2018-06-14T16:01:03.538Z,90.04
2018-06-14T16:03:32.558Z,89.72
2018-06-14T16:06:01.730Z,89.47
2018-06-14T16:08:30.939Z,89.90
2018-06-14T16:11:06.063Z,90.48
2018-06-14T16:13:35.025Z,90.91
2018-06-14T16:16:03.931Z,91.51
2018-06-14T16:18:33.290Z,91.76
2018-06-14T16:21:02.225Z,92.70
2018-06-14T16:23:31.161Z,92.12
2018-06-14T16:26:00.105Z,92.20
2018-06-14T16:28:29.055Z,93.07
2018-06-14T16:30:58.180Z,93.40
2018-06-14T16:33:27.172Z,93.74
2018-06-14T16:35:56.426Z,94.02
2018-06-14T16:38:25.882Z,93.83
2018-06-14T16:40:54.843Z,93.81
2018-06-14T16:43:23.826Z,94.40
2018-06-14T16:45:52.755Z,94.02
2018-06-14T16:48:21.684Z,93.68
2018-06-14T16:50:54.381Z,93.87
2018-06-14T16:53:23.443Z,93.87
2018-06-14T16:55:52.452Z,94.52
2018-06-14T16:58:21.483Z,94.83
2018-06-14T17:00:50.401Z,94.96
2018-06-14T17:03:19.366Z,95.00
2018-06-14T17:05:48.300Z,94.98
2018-06-14T17:08:17.199Z,95.39
2018-06-14T17:10:46.144Z,95.77
2018-06-14T17:13:15.058Z,95.84
2018-06-14T17:15:43.965Z,95.60
2018-06-14T17:18:12.889Z,95.57
2018-06-14T17:20:41.824Z,96.29
2018-06-14T17:23:10.749Z,96.13
2018-06-14T17:25:39.697Z,95.84
2018-06-14T17:28:08.649Z,95.49
2018-06-14T17:30:37.562Z,95.22
2018-06-14T17:33:06.478Z,95.97
2018-06-14T17:35:35.463Z,95.20
2018-06-14T17:38:04.576Z,95.56
2018-06-14T17:40:33.973Z,95.16
2018-06-14T17:43:03.794Z,95.83
2018-06-14T17:45:32.741Z,95.46
2018-06-14T17:48:01.718Z,95.25
2018-06-14T17:50:30.637Z,95.25
2018-06-14T17:52:59.782Z,95.02
2018-06-14T17:55:28.667Z,95.31
2018-06-14T17:57:57.589Z,95.06
2018-06-14T18:00:26.577Z,94.76
2018-06-14T18:02:55.456Z,95.03
2018-06-14T18:05:24.364Z,93.79
2018-06-14T18:07:53.276Z,93.47
2018-06-14T18:10:26.087Z,94.15
2018-06-14T18:12:55.036Z,94.54
2018-06-14T18:15:23.961Z,94.05
2018-06-14T18:17:52.920Z,94.64
2018-06-14T18:20:21.786Z,94.00
2018-06-14T18:22:50.718Z,93.69
2018-06-14T18:25:19.607Z,94.18
2018-06-14T18:27:48.514Z,94.24
2018-06-14T18:30:17.431Z,93.51
2018-06-14T18:32:46.393Z,92.53
2018-06-14T18:35:15.280Z,94.14
2018-06-14T18:37:44.201Z,93.55
2018-06-14T18:40:13.122Z,93.75
2018-06-14T18:42:42.052Z,93.88
2018-06-14T18:45:11.058Z,94.18
2018-06-14T18:47:40.014Z,94.40
2018-06-14T18:50:11.070Z,94.76
2018-06-14T18:52:39.971Z,94.59
2018-06-14T18:55:08.921Z,95.26
2018-06-14T18:57:37.844Z,95.14
2018-06-14T19:00:06.770Z,94.68
2018-06-14T19:02:35.686Z,94.67
2018-06-14T19:05:04.643Z,94.76
2018-06-14T19:07:33.584Z,94.22
2018-06-14T19:10:02.470Z,93.41
2018-06-14T19:12:31.404Z,93.78
2018-06-14T19:15:00.340Z,94.05
2018-06-14T19:17:29.502Z,93.32
2018-06-14T19:19:58.372Z,92.89
2018-06-14T19:22:27.305Z,93.61
2018-06-14T19:24:56.506Z,93.53
2018-06-14T19:27:25.412Z,93.69
2018-06-14T19:29:54.617Z,93.45
2018-06-14T19:32:23.565Z,93.40
2018-06-14T19:34:52.517Z,91.55
2018-06-14T19:37:21.489Z,93.05
2018-06-14T19:39:50.427Z,92.02
2018-06-14T19:42:19.452Z,92.61
2018-06-14T19:44:48.351Z,93.39
2018-06-14T19:47:17.362Z,94.55
2018-06-14T19:49:46.283Z,95.36
2018-06-14T19:52:15.338Z,96.13
2018-06-14T19:54:44.293Z,95.72
2018-06-14T19:57:13.181Z,95.89
2018-06-14T19:59:42.076Z,95.58
2018-06-14T20:02:11.099Z,96.81
2018-06-14T20:04:40.313Z,96.24
2018-06-14T20:07:09.339Z,97.08
2018-06-14T20:09:38.260Z,96.68
2018-06-14T20:12:07.710Z,96.69
2018-06-14T20:14:36.625Z,96.44
2018-06-14T20:17:05.901Z,96.42
2018-06-14T20:19:34.829Z,97.30
2018-06-14T20:22:03.763Z,97.36
2018-06-14T20:24:32.669Z,96.46
2018-06-14T20:27:01.601Z,96.09
2018-06-14T20:29:30.518Z,96.50
2018-06-14T20:31:59.412Z,96.62
2018-06-14T20:34:28.373Z,96.37
2018-06-14T20:36:57.290Z,97.03
2018-06-14T20:39:26.199Z,96.82
2018-06-14T20:41:55.178Z,96.45
2018-06-14T20:44:25.047Z,97.03
2018-06-14T20:46:54.112Z,96.68
2018-06-14T20:49:23.016Z,96.73
2018-06-14T20:51:51.995Z,96.67
2018-06-14T20:54:20.857Z,97.06
2018-06-14T20:56:49.786Z,96.34
2018-06-14T20:59:18.713Z,96.44
2018-06-14T21:01:47.603Z,95.93
2018-06-14T21:04:16.653Z,96.35
2018-06-14T21:06:45.696Z,96.88
2018-06-14T21:09:14.673Z,97.06
2018-06-14T21:11:43.801Z,97.43
2018-06-14T21:14:12.724Z,96.83
2018-06-14T21:16:41.640Z,96.16
2018-06-14T21:19:10.554Z,95.72
2018-06-14T21:21:39.476Z,96.54
2018-06-14T21:24:08.416Z,96.99
2018-06-14T21:26:37.325Z,96.23
2018-06-14T21:29:06.238Z,96.47
2018-06-14T21:31:35.154Z,97.43
2018-06-14T21:34:04.099Z,96.51
2018-06-14T21:36:33.026Z,97.05
2018-06-14T21:39:01.955Z,97.16
2018-06-14T21:41:30.897Z,97.36
2018-06-14T21:43:59.787Z,97.43
2018-06-14T21:46:28.698Z,97.49
2018-06-14T21:48:57.638Z,97.13
2018-06-14T21:51:26.539Z,97.71
2018-06-14T21:53:55.453Z,97.35
2018-06-14T21:56:24.369Z,97.00
2018-06-14T21:58:53.272Z,97.77
2018-06-14T22:01:22.226Z,97.12
2018-06-14T22:03:53.950Z,96.92
2018-06-14T22:06:22.862Z,97.01
2018-06-14T22:08:51.784Z,96.90
2018-06-14T22:11:20.709Z,96.66
2018-06-14T22:13:49.619Z,97.26
2018-06-14T22:16:18.534Z,97.19
2018-06-14T22:18:47.512Z,97.10
2018-06-14T22:21:16.520Z,97.50
2018-06-14T22:23:45.672Z,97.52
2018-06-14T22:26:14.723Z,97.41
2018-06-14T22:28:43.623Z,97.88
2018-06-14T22:31:12.542Z,97.42
2018-06-14T22:33:52.697Z,97.73
2018-06-14T22:36:21.622Z,97.55
2018-06-14T22:38:50.911Z,97.61
2018-06-14T22:41:19.859Z,97.63
2018-06-14T22:43:48.768Z,97.69
2018-06-14T22:46:17.697Z,97.29
2018-06-14T22:48:46.601Z,98.03
2018-06-14T22:51:18.364Z,97.37
2018-06-14T22:53:47.416Z,96.86
2018-06-14T22:56:16.389Z,96.98
2018-06-14T22:58:45.468Z,96.27
2018-06-14T23:01:52.190Z,96.13
2018-06-14T23:04:24.334Z,96.13
2018-06-14T23:06:53.515Z,96.17
2018-06-14T23:10:37.579Z,96.73
2018-06-14T23:13:07.486Z,97.49
2018-06-14T23:15:36.645Z,96.25
2018-06-14T23:18:05.636Z,96.83
2018-06-14T23:20:35.502Z,96.49
2018-06-14T23:23:08.848Z,97.57
2018-06-14T23:25:38.231Z,97.81
2018-06-14T23:28:07.702Z,97.55
2018-06-14T23:30:36.628Z,97.19
2018-06-14T23:33:05.589Z,97.23
2018-06-14T23:35:34.502Z,97.24
2018-06-14T23:38:03.440Z,97.69
2018-06-14T23:40:32.353Z,97.41
2018-06-14T23:43:01.345Z,96.13
2018-06-14T23:45:30.398Z,96.58
2018-06-14T23:47:59.329Z,96.61
2018-06-14T23:50:28.529Z,96.78
2018-06-14T23:52:57.443Z,97.70
2018-06-14T23:55:26.685Z,96.92
2018-06-14T23:57:55.605Z,96.85
